Aviation Digital Data Service (ADDS)

Output produced by METARs form (0033 UTC 26 June 2019)
found at http://aviationweather.gov/metar/data/
 
KNEW 252353Z 34021G29KT 9SM FEW027 SCT045 SCT055 27/22 A3007 RMK AO2 PK WND 33029/2346 LTG DSNT NE SLP175 T02720217 10328 20272 53007
KNEW 252329Z 2600/2624 03005KT P6SM FEW040 FEW060 
     FM260300 05006KT P6SM SCT110 
     FM261200 08006KT P6SM BKN110